createdAt,value
2018-03-23T00:01:55.503Z,78.37
2018-03-23T00:04:23.015Z,79.80
2018-03-23T00:06:50.526Z,73.72
2018-03-23T00:09:18.038Z,72.50
2018-03-23T00:11:45.583Z,73.53
2018-03-23T00:14:13.103Z,75.07
2018-03-23T00:16:40.624Z,80.65
2018-03-23T00:19:08.181Z,79.05
2018-03-23T00:21:35.679Z,72.68
2018-03-23T00:24:03.212Z,77.15
2018-03-23T00:26:30.723Z,73.57
2018-03-23T00:28:58.275Z,73.18
2018-03-23T00:31:25.800Z,80.72
2018-03-23T00:33:53.320Z,78.22
2018-03-23T00:36:20.863Z,81.20
2018-03-23T00:38:48.384Z,82.25
2018-03-23T00:41:15.917Z,78.12
2018-03-23T00:43:43.435Z,82.72
2018-03-23T00:46:10.950Z,82.40
2018-03-23T00:48:38.476Z,84.53
2018-03-23T00:51:05.998Z,75.35
2018-03-23T00:53:33.539Z,77.93
2018-03-23T00:56:01.054Z,89.62
2018-03-23T00:58:28.579Z,93.55
2018-03-23T01:00:56.100Z,86.18
2018-03-23T01:03:23.616Z,90.28
2018-03-23T01:05:51.159Z,90.40
2018-03-23T01:08:18.692Z,94.30
2018-03-23T01:10:46.230Z,88.57
2018-03-23T01:13:13.751Z,89.65
2018-03-23T01:15:41.374Z,87.50
2018-03-23T01:18:08.898Z,85.70
2018-03-23T01:20:36.428Z,83.95
2018-03-23T01:23:03.970Z,74.80
2018-03-23T01:25:31.723Z,77.37
2018-03-23T01:27:59.240Z,76.68
2018-03-23T01:30:26.795Z,78.70
2018-03-23T01:32:54.312Z,76.35
2018-03-23T01:35:21.823Z,70.55
2018-03-23T01:37:49.351Z,75.25
2018-03-23T01:40:16.866Z,74.47
2018-03-23T01:42:44.391Z,70.00
2018-03-23T01:45:11.907Z,67.20
2018-03-23T01:47:39.784Z,60.55
2018-03-23T01:50:07.313Z,65.65
2018-03-23T01:52:34.835Z,66.32
2018-03-23T01:55:02.636Z,67.22
2018-03-23T01:57:30.155Z,72.30
2018-03-23T01:59:57.672Z,70.25
2018-03-23T02:02:25.465Z,72.12
2018-03-23T02:04:53.014Z,61.88
2018-03-23T02:07:20.535Z,66.90
2018-03-23T02:09:48.056Z,62.38
2018-03-23T02:12:15.576Z,64.32
2018-03-23T02:14:43.086Z,58.38
2018-03-23T02:17:10.608Z,63.10
2018-03-23T02:19:38.129Z,61.13
2018-03-23T02:22:05.658Z,56.10
2018-03-23T02:24:33.170Z,57.62
2018-03-23T02:27:00.690Z,49.83
2018-03-23T02:29:28.235Z,54.65
2018-03-23T02:31:55.751Z,54.83
2018-03-23T02:34:23.267Z,60.45
2018-03-23T02:36:50.783Z,62.33
2018-03-23T02:39:18.303Z,68.62
2018-03-23T02:41:45.849Z,75.53
2018-03-23T02:44:13.379Z,77.95
2018-03-23T02:46:40.907Z,78.03
2018-03-23T02:49:08.426Z,85.05
2018-03-23T02:51:35.951Z,88.62
2018-03-23T02:54:03.474Z,89.78
2018-03-23T02:56:30.985Z,90.45
2018-03-23T02:58:58.523Z,95.10
2018-03-23T03:01:26.059Z,91.50
2018-03-23T03:03:53.581Z,88.07
2018-03-23T03:06:21.118Z,84.93
2018-03-23T03:08:48.632Z,79.30
2018-03-23T03:11:16.176Z,73.50
2018-03-23T03:13:43.699Z,74.18
2018-03-23T03:16:12.014Z,70.65
2018-03-23T03:18:39.526Z,61.58
2018-03-23T03:21:07.048Z,55.60
2018-03-23T03:23:34.562Z,53.38
2018-03-23T03:26:02.087Z,47.88
2018-03-23T03:28:29.655Z,44.67
2018-03-23T03:30:57.182Z,44.92
2018-03-23T03:33:24.699Z,50.10
2018-03-23T03:35:52.352Z,50.20
2018-03-23T03:38:19.878Z,52.05
2018-03-23T03:40:47.398Z,48.83
2018-03-23T03:43:15.666Z,49.85
2018-03-23T03:45:43.190Z,50.67
2018-03-23T03:48:10.739Z,52.03
2018-03-23T03:50:38.590Z,57.25
2018-03-23T03:53:06.112Z,54.58
2018-03-23T03:55:33.630Z,61.33
2018-03-23T03:58:01.142Z,56.40
2018-03-23T04:00:28.742Z,63.85
2018-03-23T04:02:56.218Z,54.88
2018-03-23T04:05:23.735Z,56.90
2018-03-23T04:07:51.251Z,56.20
2018-03-23T04:10:18.785Z,57.45
2018-03-23T04:12:46.320Z,63.85
2018-03-23T04:15:13.841Z,67.50
2018-03-23T04:17:41.353Z,67.15
2018-03-23T04:20:08.927Z,74.55
2018-03-23T04:22:36.417Z,69.20
2018-03-23T04:25:03.970Z,69.50
2018-03-23T04:27:31.482Z,70.65
2018-03-23T04:29:59.002Z,70.45
2018-03-23T04:32:26.514Z,68.45
2018-03-23T04:34:54.026Z,64.75
2018-03-23T04:37:21.546Z,62.65
2018-03-23T04:39:49.058Z,61.67
2018-03-23T04:42:16.613Z,66.87
2018-03-23T04:44:44.126Z,67.07
2018-03-23T04:47:11.643Z,62.28
2018-03-23T04:49:39.170Z,55.63
2018-03-23T04:52:06.733Z,55.67
2018-03-23T04:54:34.251Z,52.10
2018-03-23T04:57:02.051Z,54.80
2018-03-23T04:59:29.583Z,57.05
2018-03-23T05:01:57.131Z,54.33
2018-03-23T05:04:24.672Z,59.53
2018-03-23T05:06:52.188Z,62.05
2018-03-23T05:09:19.703Z,62.55
2018-03-23T05:11:47.247Z,63.20
2018-03-23T05:14:14.792Z,60.75
2018-03-23T05:16:42.310Z,63.78
2018-03-23T05:19:09.824Z,64.43
2018-03-23T05:21:37.347Z,61.47
2018-03-23T05:24:04.890Z,65.10
2018-03-23T05:26:32.405Z,70.57
2018-03-23T05:28:59.950Z,66.72
2018-03-23T05:31:27.498Z,68.10
2018-03-23T05:33:55.006Z,68.25
2018-03-23T05:36:22.539Z,59.28
2018-03-23T05:38:50.056Z,61.60
2018-03-23T05:41:17.584Z,59.97
2018-03-23T05:43:45.118Z,60.15
2018-03-23T05:46:12.643Z,58.42
2018-03-23T05:48:40.192Z,61.72
2018-03-23T05:51:07.718Z,66.10
2018-03-23T05:53:35.246Z,59.38
2018-03-23T05:56:02.772Z,48.22
2018-03-23T05:58:30.302Z,47.70
2018-03-23T06:00:57.834Z,52.40
2018-03-23T06:03:25.352Z,49.70
2018-03-23T06:05:52.886Z,51.95
2018-03-23T06:08:20.420Z,48.33
2018-03-23T06:10:47.950Z,52.03
2018-03-23T06:13:15.470Z,50.90
2018-03-23T06:15:43.028Z,43.45
2018-03-23T06:18:10.610Z,42.13
2018-03-23T06:20:38.119Z,43.08
2018-03-23T06:23:05.638Z,38.20
2018-03-23T06:25:33.159Z,37.22
2018-03-23T06:28:00.685Z,43.58
2018-03-23T06:30:28.218Z,44.88
2018-03-23T06:32:55.734Z,39.63
2018-03-23T06:35:23.282Z,46.72
2018-03-23T06:37:50.799Z,47.70
2018-03-23T06:40:18.314Z,48.42
2018-03-23T06:42:45.828Z,45.28
2018-03-23T06:45:13.347Z,44.50
2018-03-23T06:47:40.858Z,45.40
2018-03-23T06:50:08.382Z,42.20
2018-03-23T06:52:35.934Z,38.65
2018-03-23T06:55:03.450Z,40.65
2018-03-23T06:57:30.977Z,43.45
2018-03-23T06:59:58.501Z,43.78
2018-03-23T07:02:26.050Z,44.67
2018-03-23T07:04:53.571Z,49.58
2018-03-23T07:07:21.098Z,53.40
2018-03-23T07:09:48.615Z,50.35
2018-03-23T07:12:16.164Z,51.00
2018-03-23T07:14:43.682Z,47.83
2018-03-23T07:17:11.205Z,48.08
2018-03-23T07:19:38.749Z,51.78
2018-03-23T07:22:06.275Z,49.65
2018-03-23T07:24:33.799Z,50.45
2018-03-23T07:27:01.323Z,55.80
2018-03-23T07:29:28.850Z,47.97
2018-03-23T07:31:56.370Z,45.72
2018-03-23T07:34:23.888Z,43.67
2018-03-23T07:36:51.446Z,38.33
2018-03-23T07:39:18.982Z,42.17
2018-03-23T07:41:46.513Z,46.25
2018-03-23T07:44:14.048Z,45.85
2018-03-23T07:46:41.563Z,47.50
2018-03-23T07:49:09.078Z,42.62
2018-03-23T07:51:36.598Z,44.90
2018-03-23T07:54:04.122Z,50.15
2018-03-23T07:56:31.651Z,39.88
2018-03-23T07:58:59.203Z,40.85
2018-03-23T08:01:26.729Z,40.83
2018-03-23T08:03:54.246Z,45.30
2018-03-23T08:06:21.805Z,40.58
2018-03-23T08:08:49.326Z,45.08
2018-03-23T08:11:16.855Z,46.53
2018-03-23T08:13:44.380Z,45.53
2018-03-23T08:16:11.909Z,37.35
2018-03-23T08:18:39.430Z,40.50
2018-03-23T08:21:06.955Z,44.13
2018-03-23T08:23:34.508Z,40.60
2018-03-23T08:26:02.052Z,49.88
2018-03-23T08:28:29.607Z,48.78
2018-03-23T08:30:57.168Z,47.67
2018-03-23T08:33:24.698Z,47.88
2018-03-23T08:35:52.227Z,49.60
2018-03-23T08:38:19.743Z,50.40
2018-03-23T08:40:47.262Z,55.38
2018-03-23T08:43:14.786Z,52.15
2018-03-23T08:45:42.306Z,49.30
2018-03-23T08:48:09.826Z,52.73
2018-03-23T08:50:37.342Z,51.87
2018-03-23T08:53:04.879Z,47.57
2018-03-23T08:55:32.398Z,49.27
2018-03-23T08:57:59.920Z,54.10
2018-03-23T09:00:27.475Z,61.60
2018-03-23T09:02:54.994Z,54.93
2018-03-23T09:05:22.511Z,51.10
2018-03-23T09:07:50.026Z,64.77
2018-03-23T09:10:17.555Z,60.23
2018-03-23T09:12:45.070Z,48.27
2018-03-23T09:15:12.590Z,38.60
2018-03-23T09:17:40.123Z,36.63
2018-03-23T09:20:07.644Z,41.37
2018-03-23T09:22:35.163Z,42.90
2018-03-23T09:25:02.686Z,43.47
2018-03-23T09:27:30.203Z,55.07
2018-03-23T09:29:57.727Z,56.00
2018-03-23T09:32:25.249Z,53.87
2018-03-23T09:34:52.771Z,55.77
2018-03-23T09:37:20.437Z,55.70
2018-03-23T09:39:47.930Z,59.27
2018-03-23T09:42:15.447Z,50.97
2018-03-23T09:44:42.966Z,51.27
2018-03-23T09:47:10.475Z,58.70
2018-03-23T09:49:37.999Z,60.43
2018-03-23T09:52:05.514Z,63.67
2018-03-23T09:54:33.031Z,55.03
2018-03-23T09:57:00.547Z,51.03
2018-03-23T09:59:28.084Z,42.00
2018-03-23T10:01:55.598Z,46.53
2018-03-23T10:04:23.120Z,39.20
2018-03-23T10:06:50.682Z,45.00
2018-03-23T10:09:18.195Z,44.07
2018-03-23T10:11:45.710Z,37.63
2018-03-23T10:14:13.222Z,38.50
2018-03-23T10:16:40.742Z,44.17
2018-03-23T10:19:08.271Z,46.50
2018-03-23T10:21:35.915Z,49.50
2018-03-23T10:24:03.419Z,37.53
2018-03-23T10:26:30.932Z,41.13
2018-03-23T10:28:58.540Z,42.73
2018-03-23T10:31:26.042Z,45.97
2018-03-23T10:33:53.561Z,48.83
2018-03-23T10:36:21.074Z,40.17
2018-03-23T10:38:48.586Z,47.70
2018-03-23T10:41:16.094Z,44.63
2018-03-23T10:43:43.634Z,41.70
2018-03-23T10:46:11.150Z,36.17
2018-03-23T10:48:38.667Z,35.80
2018-03-23T10:51:06.212Z,31.83
2018-03-23T10:53:33.760Z,36.27
2018-03-23T10:56:01.275Z,33.23
2018-03-23T10:58:28.799Z,32.40
2018-03-23T11:01:01.887Z,36.50
2018-03-23T11:03:29.402Z,37.63
2018-03-23T11:05:57.815Z,43.37
2018-03-23T11:08:25.332Z,40.20
2018-03-23T11:10:52.846Z,45.90
2018-03-23T11:13:20.374Z,49.07
2018-03-23T11:15:47.901Z,54.50
2018-03-23T11:18:15.423Z,49.50
2018-03-23T11:20:42.934Z,45.53
2018-03-23T11:23:10.490Z,40.20
2018-03-23T11:25:38.006Z,41.70
2018-03-23T11:28:05.519Z,38.17
2018-03-23T11:30:33.051Z,39.40
2018-03-23T11:33:00.572Z,40.93
2018-03-23T11:35:28.167Z,45.40
2018-03-23T11:37:55.683Z,36.00
2018-03-23T11:40:23.199Z,34.83
2018-03-23T11:42:50.710Z,41.33
2018-03-23T11:45:18.243Z,39.90
2018-03-23T11:47:45.757Z,43.67
2018-03-23T11:50:13.271Z,44.37
2018-03-23T11:52:40.809Z,39.50
2018-03-23T11:55:08.320Z,35.87
2018-03-23T11:57:35.840Z,42.47
2018-03-23T12:00:10.572Z,42.67
2018-03-23T12:02:38.134Z,37.63
2018-03-23T12:05:05.665Z,38.20
2018-03-23T12:07:33.210Z,36.70
2018-03-23T12:10:00.747Z,34.50
2018-03-23T12:12:28.323Z,31.60
2018-03-23T12:14:55.847Z,35.00
2018-03-23T12:17:23.386Z,35.53
2018-03-23T12:19:50.898Z,35.97
2018-03-23T12:22:18.433Z,36.23
2018-03-23T12:24:45.957Z,39.70
2018-03-23T12:27:13.476Z,40.27
2018-03-23T12:29:40.994Z,37.50
2018-03-23T12:32:08.517Z,37.97
2018-03-23T12:34:36.042Z,37.10
2018-03-23T12:37:03.613Z,40.08
2018-03-23T12:39:31.123Z,38.37
2018-03-23T12:41:58.668Z,38.73
2018-03-23T12:44:26.192Z,40.93
2018-03-23T12:46:53.736Z,47.87
2018-03-23T12:49:21.274Z,49.20
2018-03-23T12:51:48.790Z,48.93
2018-03-23T12:54:16.326Z,54.07
2018-03-23T12:56:44.314Z,58.50
2018-03-23T12:59:11.856Z,58.43
2018-03-23T13:01:39.415Z,62.37
2018-03-23T13:04:06.910Z,56.10
2018-03-23T13:06:34.454Z,51.80
2018-03-23T13:09:01.975Z,48.43
2018-03-23T13:11:30.359Z,45.03
2018-03-23T13:13:57.904Z,49.60
2018-03-23T13:16:25.419Z,49.87
2018-03-23T13:18:52.931Z,50.60
2018-03-23T13:21:20.456Z,52.43
2018-03-23T13:23:47.991Z,45.40
2018-03-23T13:26:15.512Z,41.33
2018-03-23T13:28:43.032Z,42.53
2018-03-23T13:31:10.550Z,44.08
2018-03-23T13:33:38.064Z,47.77
2018-03-23T13:36:05.610Z,52.47
2018-03-23T13:38:33.143Z,52.47
2018-03-23T13:41:00.696Z,64.75
2018-03-23T13:43:28.231Z,62.07
2018-03-23T13:45:55.789Z,60.75
2018-03-23T13:48:23.356Z,62.40
2018-03-23T13:50:50.882Z,60.17
2018-03-23T13:53:18.459Z,59.95
2018-03-23T13:55:46.001Z,60.12
2018-03-23T13:58:13.566Z,64.35
2018-03-23T14:00:46.649Z,58.17
2018-03-23T14:03:14.234Z,52.35
2018-03-23T14:05:41.792Z,50.12
2018-03-23T14:08:09.318Z,52.30
2018-03-23T14:10:36.838Z,55.95
2018-03-23T14:13:04.380Z,51.80
2018-03-23T14:15:31.930Z,50.20
2018-03-23T14:17:59.463Z,51.20
2018-03-23T14:20:26.986Z,49.17
2018-03-23T14:22:54.512Z,47.95
2018-03-23T14:25:22.044Z,48.42
2018-03-23T14:27:49.562Z,47.97
2018-03-23T14:30:18.079Z,46.88
2018-03-23T14:32:45.618Z,45.90
2018-03-23T14:35:13.148Z,45.17
2018-03-23T14:37:40.681Z,47.67
2018-03-23T14:40:08.224Z,40.45
2018-03-23T14:42:35.755Z,47.92
2018-03-23T14:45:03.287Z,46.88
2018-03-23T14:47:30.832Z,42.17
2018-03-23T14:49:58.355Z,43.50
2018-03-23T14:52:26.664Z,44.67
2018-03-23T14:54:54.164Z,39.25
2018-03-23T14:57:21.707Z,33.85
2018-03-23T14:59:50.247Z,39.70
2018-03-23T15:02:17.767Z,42.50
2018-03-23T15:04:45.293Z,44.97
2018-03-23T15:07:12.846Z,50.03
2018-03-23T15:09:40.378Z,53.92
2018-03-23T15:12:07.948Z,58.10
2018-03-23T15:14:35.444Z,55.67
2018-03-23T15:17:03.000Z,55.88
2018-03-23T15:19:30.542Z,62.08
2018-03-23T15:21:58.061Z,50.63
2018-03-23T15:24:25.606Z,58.45
2018-03-23T15:26:53.134Z,60.55
2018-03-23T15:29:20.658Z,59.97
2018-03-23T15:31:48.188Z,63.30
2018-03-23T15:34:15.712Z,66.90
2018-03-23T15:36:43.266Z,70.20
2018-03-23T15:39:10.784Z,63.33
2018-03-23T15:41:38.310Z,64.10
2018-03-23T15:44:05.846Z,58.92
2018-03-23T15:46:33.364Z,52.03
2018-03-23T15:49:00.908Z,53.33
2018-03-23T15:51:28.430Z,56.15
2018-03-23T15:53:56.009Z,55.12
2018-03-23T15:56:23.575Z,51.47
2018-03-23T15:58:51.077Z,69.22
2018-03-23T16:01:18.636Z,56.47
2018-03-23T16:03:46.160Z,54.53
2018-03-23T16:06:13.682Z,52.83
2018-03-23T16:08:41.208Z,65.20
2018-03-23T16:11:08.736Z,60.45
2018-03-23T16:13:36.253Z,65.75
2018-03-23T16:16:03.775Z,59.55
2018-03-23T16:18:31.346Z,52.70
2018-03-23T16:20:58.865Z,43.63
2018-03-23T16:23:26.384Z,53.78
2018-03-23T16:25:53.900Z,56.65
2018-03-23T16:28:21.423Z,74.10
2018-03-23T16:30:48.999Z,63.08
2018-03-23T16:33:16.513Z,74.12
2018-03-23T16:35:44.046Z,71.97
2018-03-23T16:38:11.582Z,83.12
2018-03-23T16:40:39.101Z,75.15
2018-03-23T16:43:06.623Z,72.90
2018-03-23T16:45:34.143Z,83.53
2018-03-23T16:48:01.774Z,63.13
2018-03-23T16:50:29.314Z,63.80
2018-03-23T16:52:56.834Z,70.03
2018-03-23T16:55:24.355Z,64.72
2018-03-23T16:57:51.874Z,71.18
2018-03-23T17:00:19.536Z,83.03
2018-03-23T17:02:47.072Z,62.00
2018-03-23T17:05:14.595Z,69.30
2018-03-23T17:07:43.019Z,63.13
2018-03-23T17:10:10.548Z,74.72
2018-03-23T17:12:38.151Z,65.20
2018-03-23T17:15:05.643Z,62.22
2018-03-23T17:17:33.192Z,71.28
2018-03-23T17:20:00.914Z,74.97
2018-03-23T17:22:28.798Z,90.25
2018-03-23T17:24:56.414Z,88.90
2018-03-23T17:27:24.232Z,91.40
2018-03-23T17:29:51.766Z,76.68
2018-03-23T17:32:19.290Z,75.57
2018-03-23T17:34:46.809Z,75.03
2018-03-23T17:37:14.804Z,68.80
2018-03-23T19:32:09.065Z,23.40
2018-03-23T19:34:37.390Z,18.93
2018-03-23T19:37:11.149Z,21.70
2018-03-23T19:51:00.001Z,20.80
2018-03-23T19:53:32.121Z,20.33
2018-03-23T20:22:11.392Z,21.87
2018-03-23T20:24:38.925Z,40.10
2018-03-23T20:27:11.979Z,42.20
2018-03-23T20:29:39.548Z,46.47
2018-03-23T20:32:13.335Z,39.97
2018-03-23T20:34:40.946Z,40.10
2018-03-23T20:37:08.658Z,38.60
2018-03-23T20:39:36.203Z,39.40
2018-03-23T20:42:03.764Z,34.70
2018-03-23T20:44:31.727Z,34.38
2018-03-23T20:46:59.281Z,37.90
2018-03-23T20:49:26.840Z,37.03
2018-03-23T20:51:54.655Z,39.25
2018-03-23T20:54:23.062Z,43.00
2018-03-23T20:56:50.611Z,46.75
2018-03-23T20:59:18.149Z,43.97
2018-03-23T21:01:45.741Z,44.75
2018-03-23T21:04:13.282Z,44.00
2018-03-23T21:06:41.679Z,45.00
2018-03-23T21:09:09.299Z,46.28
2018-03-23T21:11:36.831Z,49.08
2018-03-23T21:14:04.372Z,48.15
2018-03-23T21:16:32.670Z,45.12
2018-03-23T21:19:01.246Z,45.60
2018-03-23T21:21:28.779Z,46.03
2018-03-23T21:23:56.624Z,50.05
2018-03-23T21:26:24.166Z,54.80
2018-03-23T21:28:51.731Z,51.55
2018-03-23T21:31:19.293Z,51.63
2018-03-23T21:33:47.382Z,52.55
2018-03-23T21:36:14.891Z,52.20
2018-03-23T21:38:42.660Z,48.33
2018-03-23T21:41:10.189Z,53.47
2018-03-23T21:43:38.069Z,50.40
2018-03-23T21:46:05.628Z,51.47
2018-03-23T21:48:33.247Z,53.38
2018-03-23T21:51:01.045Z,52.78
2018-03-23T21:53:28.653Z,48.97
2018-03-23T21:55:56.212Z,48.87
2018-03-23T21:58:24.077Z,39.15
2018-03-23T22:00:51.872Z,48.55
2018-03-23T22:03:20.002Z,42.17
2018-03-23T22:05:47.641Z,43.90
2018-03-23T22:08:15.417Z,47.95
2018-03-23T22:10:42.992Z,47.83
2018-03-23T22:13:10.608Z,46.17
2018-03-23T22:15:38.130Z,45.80
2018-03-23T22:18:05.691Z,44.95
2018-03-23T22:20:33.860Z,48.35
2018-03-23T22:23:01.395Z,44.47
2018-03-23T22:25:29.891Z,50.10
2018-03-23T22:27:57.422Z,51.40
2018-03-23T22:30:25.095Z,50.25
2018-03-23T22:32:53.879Z,51.00
2018-03-23T22:35:21.445Z,50.17
2018-03-23T22:37:49.236Z,50.88
2018-03-23T22:40:16.835Z,47.58
2018-03-23T22:42:44.391Z,48.03
2018-03-23T22:45:11.999Z,48.87
2018-03-23T22:47:39.784Z,49.90
2018-03-23T22:50:08.841Z,49.33
2018-03-23T22:52:36.613Z,51.28
2018-03-23T22:55:04.180Z,51.30
2018-03-23T22:57:31.729Z,48.38
2018-03-23T22:59:59.482Z,49.10
2018-03-23T23:02:27.082Z,48.47
2018-03-23T23:04:54.640Z,51.42
2018-03-23T23:07:22.215Z,43.65
2018-03-23T23:09:49.839Z,49.33
2018-03-23T23:12:17.415Z,51.75
2018-03-23T23:14:45.007Z,53.03
2018-03-23T23:17:12.556Z,54.42
2018-03-23T23:19:40.125Z,52.45
2018-03-23T23:22:07.659Z,50.33
2018-03-23T23:24:35.186Z,52.72
2018-03-23T23:27:02.942Z,47.75
2018-03-23T23:29:30.487Z,52.15
2018-03-23T23:31:58.020Z,48.92
2018-03-23T23:34:25.568Z,52.67
2018-03-23T23:36:53.145Z,55.55
2018-03-23T23:39:20.685Z,56.72
2018-03-23T23:41:48.220Z,56.25
2018-03-23T23:44:15.977Z,49.60
2018-03-23T23:46:43.513Z,49.88
2018-03-23T23:49:11.737Z,45.78
2018-03-23T23:51:39.524Z,43.75
2018-03-23T23:54:07.280Z,52.15
2018-03-23T23:56:34.815Z,50.38
2018-03-23T23:59:02.602Z,50.58
